Time;durP1;ratioP1;P1;durP2;ratioP2;P2;SDS_P1;SDS_P2;PMS_P1;PMS_P2;Temp;Humidity;BMP_temperature;BMP_pressure;BME280_temperature;BME280_humidity;BME280_pressure;Samples;Min_cycle;Max_cycle;Signal;HPM_P1;HPM_P2
2023/03/29 00:01:56;;;;;;;6.88;3.50;;;5.70;99.90;;;;;;5016900;28;20083;-60
2023/03/29 00:04:26;;;;;;;7.65;3.83;;;5.70;99.90;;;;;;5016569;28;20045;-59
2023/03/29 00:06:53;;;;;;;7.05;3.55;;;5.70;99.90;;;;;;5000948;28;20072;-60
2023/03/29 00:09:19;;;;;;;8.88;3.72;;;5.70;99.90;;;;;;5016162;28;20045;-60
2023/03/29 00:11:45;;;;;;;8.13;4.80;;;5.80;99.90;;;;;;5034730;28;20056;-60
2023/03/29 00:14:12;;;;;;;7.18;3.50;;;5.70;99.90;;;;;;5034303;28;20390;-60
2023/03/29 00:16:38;;;;;;;9.27;4.15;;;5.70;99.90;;;;;;5016607;28;20395;-60
2023/03/29 00:19:04;;;;;;;7.68;4.32;;;5.70;99.90;;;;;;5016701;28;20044;-60
2023/03/29 00:21:30;;;;;;;8.88;3.38;;;5.70;99.90;;;;;;5034839;28;20045;-60
2023/03/29 00:23:56;;;;;;;7.75;3.25;;;5.70;99.90;;;;;;5016084;28;20449;-60
2023/03/29 00:26:22;;;;;;;7.55;3.70;;;5.70;99.90;;;;;;5016469;28;20073;-60
2023/03/29 00:28:48;;;;;;;6.93;3.58;;;5.70;99.90;;;;;;5017268;28;20072;-60
2023/03/29 00:31:16;;;;;;;7.53;3.55;;;5.70;99.90;;;;;;5014729;28;20082;-60
2023/03/29 00:33:42;;;;;;;10.00;3.25;;;5.70;99.90;;;;;;5000403;28;20033;-60
2023/03/29 00:36:09;;;;;;;8.90;3.65;;;5.70;99.90;;;;;;5034101;28;20044;-60
2023/03/29 00:38:35;;;;;;;7.70;4.22;;;5.70;99.90;;;;;;5015830;28;20099;-59
2023/03/29 00:41:02;;;;;;;7.38;3.65;;;5.70;99.90;;;;;;5016170;28;20084;-60
2023/03/29 00:43:28;;;;;;;7.53;3.70;;;5.70;99.90;;;;;;5034010;28;20081;-60
2023/03/29 00:45:54;;;;;;;6.53;3.47;;;5.70;99.90;;;;;;5015868;28;20077;-60
2023/03/29 00:48:26;;;;;;;8.48;3.70;;;5.70;99.90;;;;;;4999514;28;20041;-60
2023/03/29 00:51:06;;;;;;;7.63;3.53;;;5.70;99.90;;;;;;5016307;28;20041;-60
2023/03/29 00:53:42;;;;;;;9.80;4.00;;;5.70;99.90;;;;;;5016359;28;20037;-60
2023/03/29 00:56:26;;;;;;;7.80;3.33;;;5.70;99.90;;;;;;5033680;28;20080;-60
2023/03/29 00:59:03;;;;;;;7.20;3.40;;;5.70;99.90;;;;;;5015582;28;20037;-60
2023/03/29 01:01:53;;;;;;;6.90;3.85;;;5.70;99.90;;;;;;5016138;28;20122;-60
2023/03/29 01:04:24;;;;;;;7.45;3.22;;;5.70;99.90;;;;;;5015628;28;20052;-60
2023/03/29 01:06:59;;;;;;;7.38;3.38;;;5.70;99.90;;;;;;4998809;28;20041;-60
2023/03/29 01:09:29;;;;;;;6.35;3.33;;;5.70;99.90;;;;;;5033469;28;20048;-60
2023/03/29 01:11:57;;;;;;;6.63;2.92;;;5.70;99.90;;;;;;5016199;28;20045;-60
2023/03/29 01:14:37;;;;;;;7.07;3.15;;;5.70;99.90;;;;;;5014930;28;20430;-60
2023/03/29 01:17:03;;;;;;;8.40;3.80;;;5.70;99.90;;;;;;5015776;28;20043;-60
2023/03/29 01:19:37;;;;;;;6.43;3.20;;;5.70;99.90;;;;;;5014883;28;20591;-60
2023/03/29 01:22:32;;;;;;;7.07;3.53;;;5.70;99.90;;;;;;5015291;28;20045;-60
2023/03/29 01:25:25;;;;;;;6.25;3.10;;;5.70;99.90;;;;;;5015836;28;20509;-60
2023/03/29 01:28:01;;;;;;;7.38;2.70;;;5.70;99.90;;;;;;5032639;28;20041;-60
2023/03/29 01:30:53;;;;;;;5.68;2.92;;;5.70;99.90;;;;;;5033264;28;20048;-60
2023/03/29 01:33:27;;;;;;;6.13;3.13;;;5.70;99.90;;;;;;5003807;28;20045;-60
2023/03/29 01:35:58;;;;;;;5.80;2.80;;;5.70;99.90;;;;;;5015301;28;20042;-60
2023/03/29 01:38:29;;;;;;;6.15;3.33;;;5.70;99.90;;;;;;5037733;28;20493;-60
2023/03/29 01:40:55;;;;;;;6.25;3.08;;;5.70;99.90;;;;;;5052176;28;20481;-61
2023/03/29 01:43:30;;;;;;;4.97;2.40;;;5.70;99.90;;;;;;5032339;28;20056;-60
2023/03/29 01:46:17;;;;;;;7.20;3.28;;;5.70;99.90;;;;;;5035160;28;20045;-60
2023/03/29 01:49:10;;;;;;;6.30;2.50;;;5.70;99.90;;;;;;5034408;28;20049;-60
2023/03/29 01:51:46;;;;;;;5.93;2.70;;;5.70;99.90;;;;;;5018715;28;20048;-60
2023/03/29 01:54:21;;;;;;;6.22;2.55;;;5.70;99.90;;;;;;5017756;28;20047;-60
2023/03/29 01:56:49;;;;;;;7.35;2.97;;;5.70;99.90;;;;;;5034366;28;20115;-60
2023/03/29 01:59:19;;;;;;;6.93;2.78;;;5.70;99.90;;;;;;5052412;28;20033;-60
2023/03/29 02:01:49;;;;;;;6.15;2.53;;;5.70;99.90;;;;;;5034669;28;20484;-60
2023/03/29 02:04:21;;;;;;;6.93;3.00;;;5.70;99.90;;;;;;5033667;28;20040;-60
2023/03/29 02:06:49;;;;;;;6.97;2.97;;;5.80;99.90;;;;;;5034908;28;20051;-60
2023/03/29 02:09:16;;;;;;;9.13;3.15;;;5.70;99.90;;;;;;5051129;28;20475;-60
2023/03/29 02:11:43;;;;;;;6.30;2.70;;;5.70;99.90;;;;;;5034562;28;20079;-60
2023/03/29 02:14:09;;;;;;;9.65;2.97;;;5.80;99.90;;;;;;5017500;28;20044;-60
2023/03/29 02:16:36;;;;;;;6.47;2.85;;;5.80;99.90;;;;;;5033893;28;20604;-60
2023/03/29 02:19:02;;;;;;;6.50;2.90;;;5.80;99.90;;;;;;5034494;28;20394;-60
2023/03/29 02:22:00;;;;;;;6.55;2.83;;;5.80;99.90;;;;;;5034470;28;20444;-60
2023/03/29 02:24:31;;;;;;;8.50;3.03;;;5.80;99.90;;;;;;5016406;28;20044;-60
2023/03/29 02:26:57;;;;;;;8.00;3.53;;;5.80;99.90;;;;;;5034325;28;20045;-60
2023/03/29 02:29:23;;;;;;;9.82;3.28;;;5.80;99.90;;;;;;5033987;28;20049;-60
2023/03/29 02:32:04;;;;;;;5.88;3.15;;;5.80;99.90;;;;;;5033450;28;20041;-60
2023/03/29 02:34:37;;;;;;;6.50;3.53;;;5.80;99.90;;;;;;5017820;28;20044;-60
2023/03/29 02:37:14;;;;;;;6.30;2.95;;;5.80;99.90;;;;;;5033504;28;20102;-60
2023/03/29 02:39:41;;;;;;;7.07;2.83;;;5.80;99.90;;;;;;5034794;28;20390;-60
2023/03/29 02:42:08;;;;;;;4.93;2.70;;;5.80;99.90;;;;;;5033381;28;20096;-60
2023/03/29 02:44:38;;;;;;;8.55;3.35;;;5.80;99.90;;;;;;5017015;28;20049;-60
2023/03/29 02:47:15;;;;;;;6.70;3.25;;;5.80;99.90;;;;;;5051764;28;20041;-60
2023/03/29 02:49:41;;;;;;;6.03;3.03;;;5.80;99.90;;;;;;5052251;28;20127;-60
2023/03/29 02:52:18;;;;;;;6.20;2.92;;;5.80;99.90;;;;;;5050751;28;20120;-60
2023/03/29 02:54:46;;;;;;;6.82;2.67;;;5.80;99.90;;;;;;5036991;28;20035;-60
2023/03/29 02:57:12;;;;;;;7.13;2.97;;;5.80;99.90;;;;;;5040402;28;20127;-60
2023/03/29 02:59:39;;;;;;;8.60;3.00;;;5.80;99.90;;;;;;5023730;28;20136;-60
2023/03/29 03:02:06;;;;;;;6.10;3.03;;;5.90;99.90;;;;;;5040485;28;20048;-60
2023/03/29 03:04:34;;;;;;;9.65;3.22;;;5.90;99.90;;;;;;5009105;28;20448;-60
2023/03/29 03:07:00;;;;;;;7.07;3.75;;;5.90;99.90;;;;;;5019962;28;20056;-60
2023/03/29 03:09:26;;;;;;;6.70;3.20;;;5.80;99.90;;;;;;5038364;28;20053;-60
2023/03/29 03:11:52;;;;;;;7.07;3.30;;;5.80;99.90;;;;;;5020215;28;20482;-60
2023/03/29 03:14:21;;;;;;;7.63;3.40;;;5.80;99.90;;;;;;5003540;28;20038;-60
2023/03/29 03:16:47;;;;;;;7.15;2.78;;;5.90;99.90;;;;;;5020977;28;20037;-60
2023/03/29 03:19:13;;;;;;;6.55;3.35;;;5.90;99.90;;;;;;5037223;28;20037;-60
2023/03/29 03:21:39;;;;;;;7.75;3.30;;;5.80;99.90;;;;;;5004359;28;20059;-60
2023/03/29 03:24:06;;;;;;;8.25;3.60;;;5.90;99.90;;;;;;5037949;28;20041;-60
2023/03/29 03:26:32;;;;;;;9.20;4.22;;;5.90;99.90;;;;;;5020014;28;20057;-60
2023/03/29 03:28:58;;;;;;;7.82;3.47;;;5.80;99.90;;;;;;5038639;28;20044;-60
2023/03/29 03:31:24;;;;;;;7.40;3.83;;;5.80;99.90;;;;;;5019999;28;20383;-60
2023/03/29 03:33:49;;;;;;;7.55;4.13;;;5.90;99.90;;;;;;5020077;28;20042;-60
2023/03/29 03:36:15;;;;;;;6.78;3.97;;;5.80;99.90;;;;;;5037824;28;20033;-60
2023/03/29 03:38:42;;;;;;;8.25;3.58;;;5.80;99.90;;;;;;5038361;28;20033;-60
2023/03/29 03:41:08;;;;;;;8.85;4.28;;;5.80;99.90;;;;;;5018826;28;20112;-60
2023/03/29 03:43:35;;;;;;;7.07;3.90;;;5.90;99.90;;;;;;5004324;28;20136;-60
2023/03/29 03:46:01;;;;;;;7.53;4.00;;;5.80;99.90;;;;;;5020666;28;20416;-60
2023/03/29 03:48:26;;;;;;;6.75;3.50;;;5.90;99.90;;;;;;5037024;28;20041;-60
2023/03/29 03:50:55;;;;;;;9.48;4.13;;;5.90;99.90;;;;;;5020477;28;20044;-60
2023/03/29 03:53:22;;;;;;;9.95;4.45;;;5.80;99.90;;;;;;5004527;28;20260;-60
2023/03/29 03:55:53;;;;;;;8.80;4.03;;;5.90;99.90;;;;;;5037326;28;20103;-60
2023/03/29 03:58:19;;;;;;;7.82;4.20;;;5.90;99.90;;;;;;5037817;28;20398;-60
2023/03/29 04:00:48;;;;;;;7.97;4.10;;;5.90;99.90;;;;;;5020402;28;20049;-60
2023/03/29 04:03:15;;;;;;;9.15;4.63;;;5.80;99.90;;;;;;5020001;28;20045;-60
2023/03/29 04:05:43;;;;;;;8.43;3.80;;;5.90;99.90;;;;;;5019022;28;20494;-60
2023/03/29 04:08:11;;;;;;;9.20;4.13;;;5.80;99.90;;;;;;5016381;28;20394;-60
2023/03/29 04:10:38;;;;;;;9.20;3.50;;;5.90;99.90;;;;;;5034758;28;20045;-60
2023/03/29 04:13:04;;;;;;;7.25;4.35;;;5.90;99.90;;;;;;5034787;28;20037;-60
2023/03/29 04:15:32;;;;;;;7.82;4.28;;;5.90;99.90;;;;;;5016193;28;20033;-60
2023/03/29 04:17:59;;;;;;;7.72;3.70;;;5.90;99.90;;;;;;5017296;28;20056;-60
2023/03/29 04:20:26;;;;;;;7.28;4.03;;;5.90;99.90;;;;;;5016605;28;20052;-60
2023/03/29 04:22:52;;;;;;;9.13;4.30;;;5.90;99.90;;;;;;5016097;28;20513;-60
2023/03/29 04:25:20;;;;;;;7.88;4.95;;;5.90;99.90;;;;;;5000295;28;20460;-60
2023/03/29 04:27:46;;;;;;;8.18;4.60;;;5.90;99.90;;;;;;5016858;28;20132;-60
2023/03/29 04:30:12;;;;;;;8.95;5.15;;;5.90;99.90;;;;;;5015656;28;20485;-60
2023/03/29 04:32:38;;;;;;;9.93;4.55;;;5.90;99.90;;;;;;5034549;28;20073;-60
2023/03/29 04:35:04;;;;;;;7.72;4.45;;;5.90;99.90;;;;;;5016598;28;20073;-60
2023/03/29 04:37:30;;;;;;;8.60;4.07;;;5.90;99.90;;;;;;4999538;28;20127;-60
2023/03/29 04:39:59;;;;;;;8.85;4.28;;;5.90;99.90;;;;;;5016870;28;20037;-60
2023/03/29 04:42:26;;;;;;;8.93;4.82;;;5.90;99.90;;;;;;5005615;28;20093;-60
2023/03/29 04:44:52;;;;;;;7.80;4.20;;;5.90;99.90;;;;;;5013780;28;20038;-60
2023/03/29 04:47:18;;;;;;;11.75;5.22;;;5.90;99.90;;;;;;4996538;28;20442;-60
2023/03/29 04:49:44;;;;;;;11.00;4.85;;;5.90;99.90;;;;;;4996920;28;20049;-60
2023/03/29 04:52:10;;;;;;;8.10;4.88;;;6.00;99.90;;;;;;4995705;28;20054;-60
2023/03/29 04:54:36;;;;;;;7.90;4.30;;;6.00;99.90;;;;;;4996816;28;20037;-60
2023/03/29 04:57:03;;;;;;;10.75;5.47;;;6.00;99.90;;;;;;4996321;28;20445;-60
2023/03/29 04:59:29;;;;;;;11.30;5.03;;;6.00;99.90;;;;;;4995720;28;20042;-60
2023/03/29 05:01:55;;;;;;;9.90;5.32;;;5.90;99.90;;;;;;4996771;28;20119;-60
2023/03/29 05:04:20;;;;;;;8.05;5.28;;;6.00;99.90;;;;;;4995381;28;20064;-60
2023/03/29 05:06:46;;;;;;;12.00;5.13;;;6.00;99.90;;;;;;5014299;28;20402;-60
2023/03/29 05:09:12;;;;;;;8.65;4.57;;;5.90;99.90;;;;;;4996117;28;20089;-60
2023/03/29 05:11:37;;;;;;;10.00;4.93;;;5.90;99.90;;;;;;4995866;28;20848;-60
2023/03/29 05:14:06;;;;;;;12.25;6.13;;;6.00;99.90;;;;;;5003892;28;20474;-60
2023/03/29 05:16:33;;;;;;;8.25;5.22;;;6.00;99.90;;;;;;5016060;28;20045;-60
2023/03/29 05:18:59;;;;;;;9.85;4.70;;;6.00;99.90;;;;;;5015062;28;20038;-60
2023/03/29 05:21:27;;;;;;;9.85;4.80;;;6.00;99.90;;;;;;4999100;28;20123;-60
2023/03/29 05:23:53;;;;;;;14.27;5.50;;;6.00;99.90;;;;;;5015526;28;20072;-60
2023/03/29 05:26:21;;;;;;;8.35;5.05;;;6.00;99.90;;;;;;4998026;28;20045;-60
2023/03/29 05:28:47;;;;;;;11.85;6.10;;;6.00;99.90;;;;;;5016034;28;20103;-60
2023/03/29 05:31:14;;;;;;;12.90;5.35;;;6.00;99.90;;;;;;5032909;28;20033;-60
2023/03/29 05:33:39;;;;;;;10.25;4.95;;;6.00;99.90;;;;;;5010627;28;20505;-60
2023/03/29 05:36:09;;;;;;;9.55;5.65;;;6.00;99.90;;;;;;4979344;28;20128;-60
2023/03/29 05:38:35;;;;;;;9.27;5.20;;;6.00;99.90;;;;;;5012395;28;20048;-60
2023/03/29 05:41:02;;;;;;;12.63;6.22;;;6.00;99.90;;;;;;4994917;28;20084;-60
2023/03/29 05:43:28;;;;;;;14.95;6.50;;;6.00;99.90;;;;;;5014927;28;20475;-60
2023/03/29 05:45:54;;;;;;;10.27;6.22;;;6.00;99.90;;;;;;5018496;28;20083;-60
2023/03/29 05:48:21;;;;;;;9.48;5.93;;;6.00;99.90;;;;;;5034239;28;20063;-60
2023/03/29 05:50:48;;;;;;;11.15;5.93;;;6.00;99.90;;;;;;5035152;28;20044;-60
2023/03/29 05:53:15;;;;;;;12.95;6.97;;;5.90;99.90;;;;;;5018157;28;20033;-60
2023/03/29 05:55:41;;;;;;;12.13;7.15;;;5.90;99.90;;;;;;5033986;28;20036;-60
2023/03/29 05:58:07;;;;;;;12.13;7.78;;;5.90;99.90;;;;;;5034378;28;20041;-60
2023/03/29 06:00:35;;;;;;;10.40;6.70;;;5.90;99.90;;;;;;5034519;28;20052;-60
2023/03/29 06:03:01;;;;;;;12.68;7.78;;;6.00;99.90;;;;;;5018465;28;20394;-60
2023/03/29 06:05:27;;;;;;;13.52;8.10;;;5.90;99.90;;;;;;5034267;28;20047;-60
2023/03/29 06:07:53;;;;;;;11.05;7.55;;;6.00;99.90;;;;;;5017592;28;20802;-60
2023/03/29 06:10:19;;;;;;;12.43;7.82;;;6.00;99.90;;;;;;5034129;28;20099;-60
2023/03/29 06:12:45;;;;;;;14.43;7.05;;;5.90;99.90;;;;;;5034765;28;20033;-60
2023/03/29 06:15:13;;;;;;;13.23;7.75;;;6.00;99.90;;;;;;5016587;28;20033;-60
2023/03/29 06:17:39;;;;;;;22.90;9.00;;;6.00;99.90;;;;;;5034742;28;20478;-60
2023/03/29 06:20:09;;;;;;;13.30;8.48;;;6.00;99.90;;;;;;5014164;28;20044;-60
2023/03/29 06:22:39;;;;;;;17.65;9.38;;;6.00;99.90;;;;;;5047800;28;20041;-60
2023/03/29 06:25:08;;;;;;;14.75;8.77;;;5.90;99.90;;;;;;5033540;28;20040;-60
2023/03/29 06:27:34;;;;;;;13.82;9.15;;;6.00;99.90;;;;;;5018228;28;20056;-60
2023/03/29 06:30:00;;;;;;;15.13;9.60;;;6.00;99.90;;;;;;5033250;28;20068;-60
2023/03/29 06:32:26;;;;;;;14.30;7.68;;;6.10;99.90;;;;;;5017805;28;20056;-60
2023/03/29 06:34:53;;;;;;;11.75;8.25;;;6.00;99.90;;;;;;5023898;28;20045;-60
2023/03/29 06:37:20;;;;;;;11.40;8.05;;;6.10;99.90;;;;;;5014473;28;20037;-60
2023/03/29 06:39:51;;;;;;;15.05;9.60;;;6.10;99.90;;;;;;5014568;28;20132;-60
2023/03/29 06:42:18;;;;;;;13.52;8.60;;;6.20;99.90;;;;;;5004531;28;20065;-60
2023/03/29 06:44:44;;;;;;;12.60;8.13;;;6.20;99.90;;;;;;5021004;28;20045;-60
2023/03/29 06:47:10;;;;;;;12.25;8.25;;;6.20;99.90;;;;;;4989051;28;20125;-60
2023/03/29 06:49:36;;;;;;;14.65;9.02;;;6.20;99.90;;;;;;4994534;28;20036;-60
2023/03/29 06:52:01;;;;;;;14.88;8.65;;;6.30;99.90;;;;;;5010977;28;20076;-60
2023/03/29 06:54:27;;;;;;;12.95;8.35;;;6.30;99.90;;;;;;5030379;28;20071;-60
2023/03/29 06:56:53;;;;;;;17.52;8.38;;;6.30;99.90;;;;;;5013052;28;20379;-60
2023/03/29 06:59:18;;;;;;;12.35;8.15;;;6.40;99.90;;;;;;5014069;28;20048;-60
2023/03/29 07:01:46;;;;;;;14.38;8.75;;;6.40;99.90;;;;;;5032306;28;20422;-60
2023/03/29 07:04:12;;;;;;;11.60;7.63;;;6.40;99.90;;;;;;5009812;28;20196;-61
2023/03/29 07:06:39;;;;;;;11.98;7.82;;;6.50;99.90;;;;;;5007568;28;20038;-60
2023/03/29 07:09:05;;;;;;;12.95;7.82;;;6.50;99.90;;;;;;5014319;28;20047;-60
2023/03/29 07:11:35;;;;;;;12.25;7.75;;;6.50;99.90;;;;;;4991316;28;20116;-60
2023/03/29 07:14:04;;;;;;;14.20;8.20;;;6.60;99.90;;;;;;4995372;28;20029;-60
2023/03/29 07:16:31;;;;;;;10.63;7.35;;;6.60;99.90;;;;;;5014200;28;20034;-60
2023/03/29 07:18:57;;;;;;;13.77;8.15;;;6.60;99.90;;;;;;5013597;28;20045;-61
2023/03/29 07:21:23;;;;;;;11.05;6.93;;;6.70;99.90;;;;;;4997477;28;20138;-60
2023/03/29 07:23:49;;;;;;;14.88;7.65;;;6.70;99.90;;;;;;5031855;28;20475;-60
2023/03/29 07:26:15;;;;;;;11.82;6.60;;;6.70;99.90;;;;;;5012671;28;20046;-60
2023/03/29 07:28:41;;;;;;;11.80;7.90;;;6.80;99.90;;;;;;5007245;28;20038;-61
2023/03/29 07:31:09;;;;;;;13.07;7.60;;;6.80;99.90;;;;;;5011404;28;20092;-60
2023/03/29 07:33:36;;;;;;;16.52;9.05;;;6.90;99.90;;;;;;5029073;28;20441;-60
2023/03/29 07:36:03;;;;;;;13.60;8.20;;;6.90;99.90;;;;;;4993755;28;20041;-60
2023/03/29 07:38:30;;;;;;;11.77;7.47;;;6.90;99.90;;;;;;5028807;28;20045;-60
2023/03/29 07:40:56;;;;;;;10.70;7.45;;;7.00;99.90;;;;;;5010886;28;20048;-60
2023/03/29 07:43:23;;;;;;;10.52;7.18;;;7.10;99.90;;;;;;5032862;28;20059;-60
2023/03/29 07:45:50;;;;;;;12.25;7.45;;;7.10;99.90;;;;;;5044772;28;20102;-60
2023/03/29 07:48:17;;;;;;;12.57;7.78;;;7.10;99.90;;;;;;5051955;28;20045;-60
2023/03/29 07:50:44;;;;;;;14.70;9.07;;;7.10;99.90;;;;;;5052970;28;20053;-60
2023/03/29 07:53:10;;;;;;;14.70;7.22;;;7.20;99.90;;;;;;5051174;28;20033;-60
2023/03/29 07:55:36;;;;;;;11.20;6.85;;;7.20;99.90;;;;;;5035092;28;20043;-60
2023/03/29 07:58:03;;;;;;;11.50;6.82;;;7.20;99.90;;;;;;5039793;28;20374;-60
2023/03/29 08:00:28;;;;;;;10.85;6.38;;;7.30;99.90;;;;;;5034024;28;20049;-60
2023/03/29 08:02:54;;;;;;;12.82;7.53;;;7.30;99.90;;;;;;5018429;28;20047;-60
2023/03/29 08:05:21;;;;;;;10.95;6.63;;;7.40;99.90;;;;;;5051776;28;20538;-60
2023/03/29 08:07:48;;;;;;;12.05;7.28;;;7.40;99.90;;;;;;5052079;28;20045;-60
2023/03/29 08:10:19;;;;;;;13.50;6.78;;;7.50;99.90;;;;;;5017512;28;20037;-60
2023/03/29 08:12:46;;;;;;;11.35;6.05;;;7.50;99.90;;;;;;5034872;28;20044;-60
2023/03/29 08:15:12;;;;;;;11.98;6.57;;;7.50;99.90;;;;;;5023695;28;20670;-60
2023/03/29 08:17:39;;;;;;;11.65;6.70;;;7.60;99.90;;;;;;5040187;28;20037;-60
2023/03/29 08:20:06;;;;;;;10.52;7.30;;;7.70;99.90;;;;;;5033956;28;20094;-60
2023/03/29 08:22:33;;;;;;;13.30;7.32;;;7.70;99.90;;;;;;5025040;28;20041;-60
2023/03/29 08:24:58;;;;;;;12.02;7.10;;;7.70;99.90;;;;;;5033809;28;20087;-61
2023/03/29 08:27:25;;;;;;;11.88;6.78;;;7.80;99.90;;;;;;5050293;28;20589;-60
2023/03/29 08:29:50;;;;;;;10.18;6.85;;;7.90;99.90;;;;;;5050522;28;20048;-60
2023/03/29 08:32:17;;;;;;;14.00;7.20;;;7.90;99.90;;;;;;5047465;28;20046;-60
2023/03/29 08:34:43;;;;;;;14.80;7.30;;;8.00;99.90;;;;;;5016433;28;20045;-61
2023/03/29 08:37:09;;;;;;;9.98;6.35;;;8.00;99.90;;;;;;5050256;28;20099;-60
2023/03/29 08:39:36;;;;;;;14.40;7.50;;;8.10;99.90;;;;;;5014361;28;20498;-60
2023/03/29 08:42:31;;;;;;;14.32;8.00;;;8.10;99.90;;;;;;5026062;28;20061;-61
2023/03/29 08:45:06;;;;;;;10.95;7.13;;;8.20;99.90;;;;;;4995589;28;20413;-60
2023/03/29 08:47:55;;;;;;;14.05;7.13;;;8.20;99.90;;;;;;5004170;28;20061;-60
2023/03/29 08:50:26;;;;;;;13.45;7.30;;;8.20;99.90;;;;;;5010846;28;20566;-60
2023/03/29 08:52:58;;;;;;;14.88;7.43;;;8.20;99.90;;;;;;4992736;28;20053;-60
2023/03/29 08:55:27;;;;;;;12.90;7.07;;;8.30;99.90;;;;;;5025195;28;20065;-60
2023/03/29 08:57:54;;;;;;;9.70;6.80;;;8.40;99.90;;;;;;4989685;28;20609;-60
2023/03/29 09:00:40;;;;;;;10.73;7.22;;;8.40;99.90;;;;;;4996648;28;20506;-60
2023/03/29 09:03:23;;;;;;;9.73;6.72;;;8.50;99.90;;;;;;4999870;28;20065;-60
2023/03/29 09:06:11;;;;;;;15.90;8.70;;;8.60;99.90;;;;;;4995534;28;20076;-60
2023/03/29 09:08:41;;;;;;;11.18;6.53;;;8.70;99.90;;;;;;5020163;28;20458;-60
2023/03/29 09:11:40;;;;;;;13.48;7.40;;;8.80;99.90;;;;;;4997327;28;20077;-60
2023/03/29 09:14:29;;;;;;;11.15;7.15;;;8.90;99.90;;;;;;5015090;28;20033;-60
2023/03/29 09:17:31;;;;;;;11.95;7.85;;;8.90;99.90;;;;;;5033689;28;20038;-60
2023/03/29 09:20:02;;;;;;;12.88;7.85;;;9.00;99.90;;;;;;5018200;28;20437;-59
2023/03/29 09:22:34;;;;;;;11.65;7.20;;;9.10;99.90;;;;;;4996148;28;20099;-60
2023/03/29 09:25:20;;;;;;;12.68;8.65;;;9.20;99.90;;;;;;5028414;28;20037;-61
2023/03/29 09:27:54;;;;;;;14.00;7.88;;;9.20;99.90;;;;;;5013384;28;20271;-61
2023/03/29 09:30:49;;;;;;;15.30;8.88;;;9.30;99.90;;;;;;4999568;28;20049;-60
2023/03/29 09:33:21;;;;;;;13.13;8.03;;;9.30;99.90;;;;;;4995111;28;20100;-60
2023/03/29 09:36:03;;;;;;;13.80;8.32;;;9.40;99.90;;;;;;4995853;28;20129;-60
2023/03/29 09:38:30;;;;;;;13.20;8.55;;;9.40;99.90;;;;;;4995814;28;20044;-60
2023/03/29 09:41:05;;;;;;;13.57;8.60;;;9.50;99.90;;;;;;5011476;28;20049;-60
2023/03/29 09:43:34;;;;;;;16.15;8.65;;;9.50;99.90;;;;;;5014867;28;20136;-60
2023/03/29 09:46:05;;;;;;;12.13;7.50;;;9.50;99.90;;;;;;5014902;28;20103;-60
2023/03/29 09:48:37;;;;;;;13.35;7.97;;;9.60;99.90;;;;;;5033160;28;20478;-60
2023/03/29 09:51:06;;;;;;;13.07;8.55;;;9.60;99.90;;;;;;5032829;28;20096;-60
2023/03/29 09:53:32;;;;;;;12.68;8.35;;;9.60;99.90;;;;;;5014521;28;20490;-60
2023/03/29 09:56:00;;;;;;;16.92;8.57;;;9.60;99.90;;;;;;5031798;28;20045;-60
2023/03/29 09:58:30;;;;;;;16.15;9.25;;;9.70;99.90;;;;;;5032606;28;20502;-60
2023/03/29 10:00:58;;;;;;;14.55;8.60;;;9.70;99.90;;;;;;5047675;28;20045;-60
2023/03/29 10:03:26;;;;;;;12.43;7.88;;;9.80;99.90;;;;;;5014254;28;20511;-61
2023/03/29 10:05:54;;;;;;;16.10;8.75;;;9.80;99.90;;;;;;5015093;28;20048;-60
2023/03/29 10:08:39;;;;;;;13.13;9.52;;;9.80;99.90;;;;;;5046780;28;20045;-60
2023/03/29 10:11:22;;;;;;;14.82;8.73;;;9.90;99.90;;;;;;5047753;28;20597;-60
2023/03/29 10:13:53;;;;;;;15.15;8.98;;;9.90;99.90;;;;;;5014224;28;20046;-60
2023/03/29 10:16:27;;;;;;;19.15;11.77;;;9.90;99.90;;;;;;5014739;28;20049;-60
2023/03/29 10:18:53;;;;;;;18.10;10.10;;;9.90;99.90;;;;;;5032793;28;20064;-60
2023/03/29 10:21:19;;;;;;;18.98;10.23;;;10.00;99.90;;;;;;5046590;28;20048;-60
2023/03/29 10:23:46;;;;;;;20.88;10.98;;;10.00;99.90;;;;;;5014983;28;20042;-61
2023/03/29 10:26:23;;;;;;;17.85;11.15;;;10.10;99.90;;;;;;5014257;28;20049;-60
2023/03/29 10:28:53;;;;;;;20.08;11.93;;;10.20;99.90;;;;;;5031749;28;20056;-60
2023/03/29 10:31:21;;;;;;;18.33;10.40;;;10.30;99.90;;;;;;5014102;28;20087;-60
2023/03/29 10:33:52;;;;;;;18.13;12.55;;;10.40;99.90;;;;;;5014714;28;20551;-60
2023/03/29 10:36:19;;;;;;;19.52;11.30;;;10.50;99.90;;;;;;5031054;28;20040;-60
2023/03/29 10:38:45;;;;;;;18.63;10.30;;;10.70;99.90;;;;;;5032388;28;20048;-60
2023/03/29 10:41:13;;;;;;;15.23;10.48;;;10.80;99.90;;;;;;5031685;28;20172;-61
2023/03/29 10:43:44;;;;;;;18.10;11.02;;;10.90;99.90;;;;;;5046862;28;20053;-60
2023/03/29 10:46:28;;;;;;;15.98;10.32;;;11.00;99.90;;;;;;5031554;28;20044;-60
2023/03/29 10:49:04;;;;;;;14.52;9.57;;;11.00;99.90;;;;;;5032269;28;20033;-61
2023/03/29 10:51:32;;;;;;;17.83;11.43;;;11.10;99.90;;;;;;5030832;28;20037;-60
2023/03/29 10:53:58;;;;;;;20.70;12.10;;;11.10;99.90;;;;;;5014744;28;20434;-61
2023/03/29 10:56:41;;;;;;;17.40;12.18;;;11.20;99.90;;;;;;5012986;28;20080;-60
2023/03/29 10:59:31;;;;;;;16.55;12.02;;;11.20;99.90;;;;;;5013944;28;20077;-60
2023/03/29 11:02:12;;;;;;;20.27;13.05;;;11.30;99.90;;;;;;5014322;28;20131;-60
2023/03/29 11:05:15;;;;;;;18.13;12.02;;;11.30;99.90;;;;;;5013699;28;20506;-60
2023/03/29 11:08:15;;;;;;;22.77;12.70;;;11.40;99.90;;;;;;5032351;28;20121;-60
2023/03/29 11:10:47;;;;;;;22.00;13.98;;;11.40;99.90;;;;;;5030009;28;20124;-61
2023/03/29 11:13:43;;;;;;;23.33;13.85;;;11.30;99.90;;;;;;5047014;28;20433;-60
2023/03/29 11:16:19;;;;;;;25.52;14.70;;;11.30;99.90;;;;;;5033489;28;20490;-60
2023/03/29 11:18:59;;;;;;;22.70;14.45;;;11.40;99.90;;;;;;5017487;28;20046;-60
2023/03/29 11:21:38;;;;;;;21.17;15.18;;;11.40;99.90;;;;;;5034495;28;20088;-60
2023/03/29 11:24:22;;;;;;;21.23;14.15;;;11.50;99.90;;;;;;5051082;28;20046;-60
2023/03/29 11:27:04;;;;;;;18.10;14.10;;;11.50;99.90;;;;;;5051185;28;20490;-60
2023/03/29 11:29:44;;;;;;;20.83;13.52;;;11.50;99.90;;;;;;5035731;28;20045;-60
2023/03/29 11:32:28;;;;;;;26.73;14.70;;;11.60;99.90;;;;;;5016555;28;20045;-60
2023/03/29 11:35:31;;;;;;;20.45;14.45;;;11.60;99.90;;;;;;5017975;28;20033;-60
2023/03/29 11:38:18;;;;;;;19.92;13.02;;;11.60;99.90;;;;;;4996261;28;20083;-60
2023/03/29 11:40:53;;;;;;;26.80;14.35;;;11.60;99.90;;;;;;5051310;28;20434;-60
2023/03/29 11:43:47;;;;;;;19.73;13.23;;;11.60;99.90;;;;;;5034751;28;20057;-60
2023/03/29 11:46:32;;;;;;;23.42;15.68;;;11.60;99.90;;;;;;5016337;28;20487;-60
2023/03/29 11:49:20;;;;;;;20.52;14.20;;;11.70;99.90;;;;;;5018050;28;20041;-60
2023/03/29 11:52:04;;;;;;;22.15;14.48;;;11.70;99.90;;;;;;5017660;28;20068;-60
2023/03/29 11:54:34;;;;;;;23.73;13.90;;;11.70;99.90;;;;;;5033689;28;20493;-60
2023/03/29 11:57:27;;;;;;;22.27;14.82;;;11.80;99.90;;;;;;5017474;28;20597;-60
2023/03/29 12:00:15;;;;;;;21.98;14.93;;;11.90;99.90;;;;;;5034417;28;20528;-60
2023/03/29 12:02:57;;;;;;;22.65;13.85;;;11.90;99.90;;;;;;5035298;28;20037;-61
2023/03/29 12:05:38;;;;;;;23.08;13.95;;;12.00;99.90;;;;;;5049996;28;20037;-60
2023/03/29 12:08:13;;;;;;;22.35;15.65;;;12.00;99.90;;;;;;5049645;28;20045;-60
2023/03/29 12:10:55;;;;;;;31.23;16.73;;;12.00;99.90;;;;;;5017228;28;20041;-60
2023/03/29 12:13:27;;;;;;;22.10;13.73;;;12.10;99.90;;;;;;5033619;28;20084;-60
2023/03/29 12:15:58;;;;;;;23.05;15.20;;;12.20;99.90;;;;;;5050685;28;20033;-60
2023/03/29 12:18:46;;;;;;;21.45;14.30;;;12.20;99.90;;;;;;5021282;28;20079;-60
2023/03/29 12:21:17;;;;;;;22.95;15.15;;;12.30;99.90;;;;;;5019795;28;20053;-69
2023/03/29 12:23:44;;;;;;;21.38;14.73;;;12.30;99.90;;;;;;5029466;28;20042;-70
2023/03/29 12:26:48;;;;;;;25.27;15.65;;;12.30;99.90;;;;;;5031155;28;20049;-69
2023/03/29 12:29:38;;;;;;;23.25;15.82;;;12.40;99.90;;;;;;5025481;28;20049;-69
2023/03/29 12:32:07;;;;;;;24.20;15.48;;;12.40;99.90;;;;;;5014038;28;20375;-69
2023/03/29 12:34:55;;;;;;;24.33;15.93;;;12.40;99.90;;;;;;5032554;28;20047;-69
2023/03/29 12:38:03;;;;;;;25.15;14.88;;;12.40;99.90;;;;;;5033991;28;20045;-69
2023/03/29 12:40:39;;;;;;;21.60;16.30;;;12.30;99.90;;;;;;5033816;28;20086;-69
2023/03/29 12:43:08;;;;;;;21.60;14.93;;;12.30;99.90;;;;;;5016026;28;20064;-69
2023/03/29 12:45:41;;;;;;;22.17;15.68;;;12.20;99.90;;;;;;5013945;28;20067;-70
2023/03/29 12:48:26;;;;;;;21.90;15.32;;;12.10;99.90;;;;;;5009864;28;20482;-69
2023/03/29 12:51:00;;;;;;;20.77;15.02;;;12.10;99.90;;;;;;5013450;28;20037;-70
2023/03/29 12:53:39;;;;;;;25.02;16.13;;;12.00;99.90;;;;;;4985387;28;20442;-61
2023/03/29 12:56:12;;;;;;;24.10;15.60;;;12.00;99.90;;;;;;5030215;28;20038;-61
2023/03/29 12:58:48;;;;;;;19.42;14.18;;;12.00;99.90;;;;;;5012388;28;20033;-61
2023/03/29 13:01:30;;;;;;;22.95;16.17;;;12.00;99.90;;;;;;5006638;28;20041;-61
2023/03/29 13:04:00;;;;;;;20.33;15.07;;;12.00;99.90;;;;;;4990126;28;20057;-61
2023/03/29 13:06:55;;;;;;;23.58;15.90;;;12.00;99.90;;;;;;4997018;28;20056;-61
2023/03/29 13:09:47;;;;;;;21.20;15.67;;;12.00;99.90;;;;;;5013258;28;20049;-61